windsock image

Welcome to Bigfield Strip.

anemometer image
     

 Help for dials.  
 
Local Met:

Wind:   
10 Min average:  
117 ° / 7.5 kts (6.1)
113° / 7.1

Temperature:  
9.1°C C
Dew Point:  
6.8°C C
QNH:  
Trend:  
1005.6 mb mb
+0.2mb/hr
BigField Strip. This image updates approximately every minute, it can have a two minute delay.  
 

Humidity:  
86 %
Sunrise:   04:55z
Sunset:   19:11z
Updated:  
  UTC
 
   More met info, trends, radar, history etc. available here   

LUTON Metar   EGGW 210420Z 04005KT CAVOK 06/04 Q1006
 
  TAF   2014/04/21 01:07 TAF AMD EGGW 210100Z 2101/2124 07005KT 9999 FEW030 TEMPO 2101/2107 3000 BR BKN002 PROB30 2101/2106 1200 TEMPO 2110/2121 8000 SHRA PROB30 TEMPO 2112/2116 4000 +SHRA BECMG 2121/2124 8000 BKN008
 
BENSON Metar   EGUB 210350Z AUTO 06005KT 6000 // NCD 05/04 Q1005
 
  TAF   2014/04/17 15:15 TAF TAF EGUB 171605Z 1715/1718 CNL
 
Big Field view 1 icon   Big Field view 2 icon   Big Field view 3 icon   Chart AL3a in PDF icon   Chart AL3a in Word icon

WARNING:
This information is provided by the Airstrip unofficial weather station, DO NOT depend on the data provided here for any purpose.
This page is updated for latest Metars & TAF's every 5 minutes. Refresh the browser to check for the lastest.
Page designed for a minimum browser size of 1024x768.
© Copyright 2014 BigField Strip. This page auto generated 04:46 UTC - 21/04/2014   Contact Us
Valid HTML 4.01 Transitional     Windows uptime: 0 Days 2 Hours 14 Minutes 38 Seconds    WD started: 02:37 21/04/14    Free memory: 1583MB     Valid CSS!